createdAt,value
2023-02-27T00:01:44.933Z,101074.94
2023-02-27T00:04:12.940Z,101079.44
2023-02-27T00:06:39.349Z,101075.50
2023-02-27T00:09:05.842Z,101065.31
2023-02-27T00:11:32.326Z,101075.03
2023-02-27T00:13:58.681Z,101072.38
2023-02-27T00:16:25.192Z,101074.69
2023-02-27T00:18:51.556Z,101074.09
2023-02-27T00:21:18.272Z,101067.78
2023-02-27T00:23:44.612Z,101068.53
2023-02-27T00:26:11.027Z,101063.53
2023-02-27T00:28:37.401Z,101066.84
2023-02-27T00:31:04.732Z,101073.81
2023-02-27T00:33:31.359Z,101063.31
2023-02-27T00:35:59.684Z,101059.25
2023-02-27T00:38:26.444Z,101070.59
2023-02-27T00:40:52.877Z,101072.81
2023-02-27T00:43:19.395Z,101061.84
2023-02-27T00:45:45.891Z,101063.91
2023-02-27T00:48:12.329Z,101072.81
2023-02-27T00:50:38.727Z,101071.13
2023-02-27T00:53:05.206Z,101072.94
2023-02-27T00:55:32.004Z,101069.63
2023-02-27T00:57:58.344Z,101070.56
2023-02-27T01:00:24.887Z,101072.25
2023-02-27T01:02:51.328Z,101069.44
2023-02-27T01:05:18.571Z,101065.47
2023-02-27T01:07:44.911Z,101069.97
2023-02-27T01:10:12.419Z,101073.56
2023-02-27T01:12:39.504Z,101071.22
2023-02-27T01:15:07.479Z,101062.53
2023-02-27T01:17:34.335Z,101067.28
2023-02-27T01:20:00.811Z,101068.22
2023-02-27T01:22:27.359Z,101079.69
2023-02-27T01:24:53.798Z,101083.03
2023-02-27T01:27:20.194Z,101077.06
2023-02-27T01:29:46.676Z,101072.53
2023-02-27T01:32:13.246Z,101072.47
2023-02-27T01:34:39.693Z,101071.59
2023-02-27T01:37:06.096Z,101075.97
2023-02-27T01:39:33.054Z,101070.16
2023-02-27T01:42:00.960Z,101071.03
2023-02-27T01:44:29.915Z,101069.31
2023-02-27T01:46:57.179Z,101066.34
2023-02-27T01:49:34.717Z,101072.69
2023-02-27T01:52:06.496Z,101073.66
2023-02-27T01:54:36.828Z,101076.03
2023-02-27T01:57:06.588Z,101073.31
2023-02-27T01:59:39.411Z,101062.97
2023-02-27T02:02:12.655Z,101073.31
2023-02-27T02:04:40.464Z,101067.91
2023-02-27T02:07:10.073Z,101059.97
2023-02-27T02:09:43.537Z,101064.13
2023-02-27T02:12:13.840Z,101068.41
2023-02-27T02:14:40.251Z,101062.88
2023-02-27T02:17:40.164Z,101055.50
2023-02-27T02:20:41.165Z,101060.81
2023-02-27T02:23:32.080Z,101058.13
2023-02-27T02:26:33.600Z,101064.25
2023-02-27T02:29:12.284Z,101065.66
2023-02-27T02:32:08.393Z,101068.28
2023-02-27T02:35:05.452Z,101064.13
2023-02-27T02:37:50.648Z,101072.06
2023-02-27T02:40:24.335Z,101069.38
2023-02-27T02:42:58.914Z,101070.78
2023-02-27T02:45:56.564Z,101069.72
2023-02-27T02:48:34.702Z,101064.28
2023-02-27T02:51:18.566Z,101068.13
2023-02-27T02:54:03.750Z,101060.06
2023-02-27T02:56:39.624Z,101059.28
2023-02-27T02:59:30.865Z,101065.41
2023-02-27T03:02:02.521Z,101069.44
2023-02-27T03:04:38.227Z,101059.00
2023-02-27T03:07:14.953Z,101068.78
2023-02-27T03:09:46.200Z,101071.78
2023-02-27T03:12:16.494Z,101074.97
2023-02-27T03:14:51.706Z,101074.75
2023-02-27T03:17:26.181Z,101076.19
2023-02-27T03:20:01.972Z,101074.16
2023-02-27T03:22:34.315Z,101079.34
2023-02-27T03:25:03.109Z,101082.91
2023-02-27T03:27:37.956Z,101083.22
2023-02-27T03:30:10.534Z,101076.91
2023-02-27T03:32:45.892Z,101082.59
2023-02-27T03:35:12.768Z,101081.75
2023-02-27T03:38:00.138Z,101083.03
2023-02-27T03:40:35.826Z,101089.19
2023-02-27T03:43:21.184Z,101085.88
2023-02-27T03:46:02.255Z,101093.59
2023-02-27T03:48:29.290Z,101093.28
2023-02-27T03:50:56.502Z,101099.09
2023-02-27T03:53:37.359Z,101096.41
2023-02-27T03:56:07.035Z,101084.50
2023-02-27T03:58:33.700Z,101090.56
2023-02-27T04:01:00.233Z,101093.97
2023-02-27T04:03:27.579Z,101108.31
2023-02-27T04:05:54.026Z,101104.81
2023-02-27T04:08:39.440Z,101101.31
2023-02-27T04:11:33.283Z,101108.97
2023-02-27T04:14:20.304Z,101110.31
2023-02-27T04:16:49.595Z,101114.41
2023-02-27T04:19:16.224Z,101122.28
2023-02-27T04:22:01.295Z,101121.72
2023-02-27T04:24:55.638Z,101113.75
2023-02-27T04:27:40.021Z,101121.53
2023-02-27T04:30:25.226Z,101120.47
2023-02-27T04:33:17.463Z,101125.94
2023-02-27T04:35:50.946Z,101124.41
2023-02-27T04:38:26.128Z,101130.00
2023-02-27T04:41:08.226Z,101124.84
2023-02-27T04:43:38.926Z,101129.03
2023-02-27T04:46:08.831Z,101125.72
2023-02-27T04:49:04.350Z,101136.75
2023-02-27T04:51:38.523Z,101136.78
2023-02-27T04:54:12.843Z,101139.47
2023-02-27T04:56:48.383Z,101126.09
2023-02-27T04:59:24.195Z,101138.31
2023-02-27T05:02:19.850Z,101130.38
2023-02-27T05:04:49.509Z,101136.53
2023-02-27T05:07:20.945Z,101134.09
2023-02-27T05:09:56.350Z,101136.56
2023-02-27T05:12:33.748Z,101144.22
2023-02-27T05:15:25.260Z,101138.09
2023-02-27T05:18:05.321Z,101151.25
2023-02-27T05:20:53.195Z,101142.41
2023-02-27T05:23:34.504Z,101146.13
2023-02-27T05:26:20.856Z,101151.28
2023-02-27T05:29:23.868Z,101156.38
2023-02-27T05:31:54.430Z,101159.25
2023-02-27T05:34:25.863Z,101161.41
2023-02-27T05:37:21.531Z,101162.84
2023-02-27T05:39:51.931Z,101158.47
2023-02-27T05:43:15.144Z,101162.69
2023-02-27T05:45:45.961Z,101165.00
2023-02-27T05:48:19.702Z,101161.78
2023-02-27T05:50:49.514Z,101173.78
2023-02-27T05:53:20.061Z,101175.22
2023-02-27T05:55:50.552Z,101174.69
2023-02-27T05:58:28.561Z,101171.34
2023-02-27T06:00:59.315Z,101170.44
2023-02-27T06:03:27.255Z,101176.50
2023-02-27T06:05:55.178Z,101181.69
2023-02-27T06:08:22.324Z,101182.13
2023-02-27T06:10:51.794Z,101181.25
2023-02-27T06:13:18.745Z,101177.84
2023-02-27T06:15:45.621Z,101187.84
2023-02-27T06:18:12.796Z,101186.47
2023-02-27T06:20:39.776Z,101190.88
2023-02-27T06:23:06.615Z,101194.78
2023-02-27T06:25:33.909Z,101191.13
2023-02-27T06:28:00.584Z,101201.38
2023-02-27T06:30:27.244Z,101207.41
2023-02-27T06:32:53.990Z,101202.09
2023-02-27T06:35:20.684Z,101204.16
2023-02-27T06:37:47.147Z,101206.81
2023-02-27T06:40:14.082Z,101205.84
2023-02-27T06:42:41.914Z,101208.16
2023-02-27T06:45:09.692Z,101214.97
2023-02-27T06:47:36.075Z,101209.69
2023-02-27T06:50:03.384Z,101207.38
2023-02-27T06:52:29.759Z,101213.38
2023-02-27T06:54:56.099Z,101210.94
2023-02-27T06:57:22.515Z,101215.56
2023-02-27T06:59:48.938Z,101219.53
2023-02-27T07:02:16.970Z,101221.41
2023-02-27T07:04:43.770Z,101216.00
2023-02-27T07:07:33.328Z,101216.81
2023-02-27T07:09:56.951Z,101218.50
2023-02-27T07:12:23.314Z,101218.06
2023-02-27T07:14:49.669Z,101216.81
2023-02-27T07:17:16.084Z,101219.38
2023-02-27T07:19:42.598Z,101217.06
2023-02-27T07:22:11.953Z,101224.84
2023-02-27T07:24:38.354Z,101225.94
2023-02-27T07:27:04.758Z,101223.56
2023-02-27T07:29:31.201Z,101226.50
2023-02-27T07:31:57.667Z,101225.47
2023-02-27T07:34:24.083Z,101232.75
2023-02-27T07:36:50.484Z,101233.66
2023-02-27T07:39:17.494Z,101217.34
2023-02-27T07:41:43.879Z,101234.81
2023-02-27T07:44:11.191Z,101226.44
2023-02-27T07:46:37.719Z,101226.38
2023-02-27T07:49:04.205Z,101232.75
2023-02-27T07:51:30.668Z,101232.88
2023-02-27T07:53:58.424Z,101227.81
2023-02-27T07:56:25.995Z,101229.75
2023-02-27T07:58:52.558Z,101227.94
2023-02-27T08:01:18.976Z,101233.41
2023-02-27T08:03:45.387Z,101246.78
2023-02-27T08:06:11.749Z,101239.03
2023-02-27T08:08:38.279Z,101238.16
2023-02-27T08:11:05.195Z,101238.22
2023-02-27T08:13:58.913Z,101249.50
2023-02-27T08:16:18.348Z,101251.41
2023-02-27T08:18:44.734Z,101257.13
2023-02-27T08:21:11.144Z,101231.94
2023-02-27T08:23:37.533Z,101255.56
2023-02-27T08:26:04.079Z,101246.63
2023-02-27T08:28:30.450Z,101245.97
2023-02-27T08:30:56.852Z,101243.69
2023-02-27T08:33:24.464Z,101249.31
2023-02-27T08:35:50.953Z,101246.38
2023-02-27T08:38:17.331Z,101251.91
2023-02-27T08:40:43.738Z,101256.56
2023-02-27T08:43:10.084Z,101258.19
2023-02-27T08:45:36.563Z,101265.09
2023-02-27T08:48:03.251Z,101256.78
2023-02-27T08:50:29.699Z,101260.50
2023-02-27T08:52:56.115Z,101264.25
2023-02-27T08:55:22.606Z,101255.47
2023-02-27T08:57:48.982Z,101263.59
2023-02-27T09:00:16.363Z,101265.59
2023-02-27T09:02:42.817Z,101261.31
2023-02-27T09:05:09.572Z,101256.94
2023-02-27T09:07:36.160Z,101262.59
2023-02-27T09:10:02.641Z,101254.78
2023-02-27T09:12:28.993Z,101263.28
2023-02-27T09:14:55.407Z,101256.06
2023-02-27T09:17:21.807Z,101266.91
2023-02-27T09:19:48.229Z,101261.53
2023-02-27T09:22:14.579Z,101259.44
2023-02-27T09:24:40.976Z,101278.69
2023-02-27T09:27:07.696Z,101271.22
2023-02-27T09:29:34.327Z,101262.84
2023-02-27T09:32:00.990Z,101291.03
2023-02-27T09:34:27.475Z,101269.13
2023-02-27T09:36:53.932Z,101277.94
2023-02-27T09:39:21.414Z,101270.88
2023-02-27T09:42:05.337Z,101274.84
2023-02-27T09:44:47.135Z,101283.66
2023-02-27T09:47:35.380Z,101281.16
2023-02-27T09:50:06.335Z,101285.28
2023-02-27T09:52:36.365Z,101284.94
2023-02-27T09:55:05.675Z,101292.41
2023-02-27T09:57:48.444Z,101282.56
2023-02-27T10:00:30.423Z,101301.06
2023-02-27T10:02:59.830Z,101281.66
2023-02-27T10:05:33.649Z,101303.50
2023-02-27T10:08:16.925Z,101304.66
2023-02-27T10:11:07.339Z,101303.53
2023-02-27T10:13:47.672Z,101301.28
2023-02-27T10:16:19.255Z,101309.16
2023-02-27T10:19:06.393Z,101300.91
2023-02-27T10:21:46.769Z,101298.28
2023-02-27T10:24:23.789Z,101300.72
2023-02-27T10:26:55.072Z,101310.28
2023-02-27T10:29:32.549Z,101308.94
2023-02-27T10:32:06.983Z,101336.16
2023-02-27T10:34:34.856Z,101302.84
2023-02-27T10:37:03.913Z,101318.59
2023-02-27T10:39:42.641Z,101325.22
2023-02-27T10:42:12.302Z,101329.81
2023-02-27T10:44:38.689Z,101320.91
2023-02-27T10:47:05.198Z,101331.06
2023-02-27T10:49:33.628Z,101337.97
2023-02-27T10:52:18.986Z,101317.25
2023-02-27T10:54:47.446Z,101315.22
2023-02-27T10:57:33.055Z,101301.44
2023-02-27T11:00:06.084Z,101299.72
2023-02-27T11:02:39.037Z,101328.22
2023-02-27T11:05:17.792Z,101302.75
2023-02-27T11:07:44.432Z,101311.38
2023-02-27T11:10:11.718Z,101310.69
2023-02-27T11:12:39.574Z,101300.19
2023-02-27T11:15:14.956Z,101305.09
2023-02-27T11:17:43.584Z,101304.34
2023-02-27T11:20:40.632Z,101294.50
2023-02-27T11:23:15.208Z,101291.81
2023-02-27T11:25:42.107Z,101295.34
2023-02-27T11:28:29.722Z,101280.63
2023-02-27T11:30:59.999Z,101267.53
2023-02-27T11:33:27.735Z,101279.53
2023-02-27T11:35:57.388Z,101273.72
2023-02-27T11:38:28.800Z,101264.25
2023-02-27T11:40:58.571Z,101280.66
2023-02-27T11:43:39.984Z,101260.78
2023-02-27T11:46:37.460Z,101263.66
2023-02-27T11:49:13.767Z,101257.91
2023-02-27T11:51:56.158Z,101276.22
2023-02-27T11:54:49.223Z,101268.25
2023-02-27T11:57:29.989Z,101260.16
2023-02-27T12:00:06.424Z,101257.41
2023-02-27T12:03:16.278Z,101256.91
2023-02-27T12:05:56.281Z,101263.06
2023-02-27T12:08:48.832Z,101243.81
2023-02-27T12:11:29.762Z,101255.31
2023-02-27T12:14:04.095Z,101257.22
2023-02-27T12:16:39.576Z,101240.59
2023-02-27T12:19:22.357Z,101233.50
2023-02-27T12:22:02.039Z,101256.84
2023-02-27T12:24:30.685Z,101240.78
2023-02-27T12:27:18.684Z,101240.97
2023-02-27T12:29:59.479Z,101239.03
2023-02-27T12:32:43.539Z,101227.53
2023-02-27T12:35:19.879Z,101230.75
2023-02-27T12:37:46.551Z,101215.84
2023-02-27T12:40:17.496Z,101226.19
2023-02-27T12:42:55.956Z,101217.44
2023-02-27T12:45:43.190Z,101210.59
2023-02-27T12:48:12.847Z,101205.59
2023-02-27T12:51:07.028Z,101210.25
2023-02-27T12:53:54.509Z,101195.13
2023-02-27T12:56:25.313Z,101200.34
2023-02-27T12:59:16.664Z,101200.50
2023-02-27T13:02:25.439Z,101206.66
2023-02-27T13:05:07.355Z,101210.28
2023-02-27T13:07:43.417Z,101204.22
2023-02-27T13:10:23.391Z,101214.63
2023-02-27T13:13:02.828Z,101210.03
2023-02-27T13:15:41.571Z,101206.34
2023-02-27T13:18:27.779Z,101205.78
2023-02-27T13:20:59.871Z,101195.63
2023-02-27T13:23:47.761Z,101207.28
2023-02-27T13:26:28.788Z,101202.13
2023-02-27T13:28:56.075Z,101198.69
2023-02-27T13:31:36.078Z,101212.75
2023-02-27T13:34:17.187Z,101190.28
2023-02-27T13:36:51.837Z,101191.31
2023-02-27T13:39:40.387Z,101191.16
2023-02-27T13:42:30.582Z,101193.84
2023-02-27T13:44:59.471Z,101195.00
2023-02-27T13:47:28.805Z,101189.59
2023-02-27T13:50:06.050Z,101187.00
2023-02-27T13:52:35.131Z,101182.31
2023-02-27T13:55:11.834Z,101203.53
2023-02-27T13:57:39.145Z,101187.72
2023-02-27T14:00:23.077Z,101192.09
2023-02-27T14:03:06.184Z,101181.72
2023-02-27T14:05:42.923Z,101173.88
2023-02-27T14:08:14.077Z,101176.72
2023-02-27T14:10:50.738Z,101180.22
2023-02-27T14:13:45.188Z,101174.72
2023-02-27T14:16:37.614Z,101175.69
2023-02-27T14:19:16.238Z,101174.00
2023-02-27T14:22:01.332Z,101174.97
2023-02-27T14:24:47.014Z,101175.84
2023-02-27T14:27:25.496Z,101182.63
2023-02-27T14:29:56.037Z,101173.88
2023-02-27T14:32:25.942Z,101178.91
2023-02-27T14:34:54.269Z,101165.91
2023-02-27T14:37:23.571Z,101167.78
2023-02-27T14:39:52.012Z,101178.25
2023-02-27T14:42:46.364Z,101184.31
2023-02-27T14:45:21.025Z,101173.19
2023-02-27T14:47:48.600Z,101175.84
2023-02-27T14:50:34.153Z,101163.69
2023-02-27T14:53:01.694Z,101167.19
2023-02-27T14:55:31.449Z,101166.31
2023-02-27T14:58:08.382Z,101190.88
2023-02-27T15:00:40.860Z,101169.66
2023-02-27T15:03:11.079Z,101170.44
2023-02-27T15:05:38.398Z,101158.97
2023-02-27T15:08:04.974Z,101171.19
2023-02-27T15:10:31.444Z,101169.47
2023-02-27T15:13:02.007Z,101166.97
2023-02-27T15:15:28.614Z,101163.63
2023-02-27T15:17:55.809Z,101165.28
2023-02-27T15:20:31.320Z,101158.25
2023-02-27T15:22:59.660Z,101160.88
2023-02-27T15:25:34.380Z,101159.03
2023-02-27T15:28:07.253Z,101161.63
2023-02-27T15:30:33.936Z,101168.59
2023-02-27T15:33:02.692Z,101165.91
2023-02-27T15:35:35.958Z,101160.56
2023-02-27T15:38:02.760Z,101168.44
2023-02-27T15:40:31.863Z,101169.28
2023-02-27T15:43:00.363Z,101178.91
2023-02-27T15:45:33.225Z,101168.28
2023-02-27T15:48:00.124Z,101172.66
2023-02-27T15:50:32.057Z,101180.53
2023-02-27T15:53:07.639Z,101172.63
2023-02-27T15:55:37.457Z,101175.16
2023-02-27T15:58:17.051Z,101178.66
2023-02-27T16:00:43.972Z,101183.09
2023-02-27T16:03:17.509Z,101176.06
2023-02-27T16:05:43.958Z,101194.41
2023-02-27T16:08:18.228Z,101191.81
2023-02-27T16:10:46.638Z,101193.44
2023-02-27T16:13:31.823Z,101200.50
2023-02-27T16:16:04.227Z,101202.16
2023-02-27T16:18:54.861Z,101206.50
2023-02-27T16:21:26.947Z,101199.59
2023-02-27T16:23:54.659Z,101203.97
2023-02-27T16:26:29.112Z,101210.00
2023-02-27T16:29:16.831Z,101213.47
2023-02-27T16:31:49.295Z,101210.03
2023-02-27T16:34:20.590Z,101214.41
2023-02-27T16:37:02.246Z,101216.16
2023-02-27T16:39:28.779Z,101216.13
2023-02-27T16:41:57.201Z,101229.16
2023-02-27T16:44:24.386Z,101226.44
2023-02-27T16:46:56.042Z,101218.66
2023-02-27T16:49:25.982Z,101218.63
2023-02-27T16:51:52.663Z,101221.31
2023-02-27T16:54:19.510Z,101235.34
2023-02-27T16:56:47.328Z,101235.16
2023-02-27T16:59:28.496Z,101242.69
2023-02-27T17:01:58.625Z,101249.72
2023-02-27T17:04:26.545Z,101250.53
2023-02-27T17:06:54.754Z,101257.56
2023-02-27T17:09:21.815Z,101253.50
2023-02-27T17:11:49.077Z,101250.72
2023-02-27T17:14:16.099Z,101262.88
2023-02-27T17:16:42.621Z,101260.25
2023-02-27T17:19:09.043Z,101266.31
2023-02-27T17:21:35.718Z,101262.81
2023-02-27T17:24:02.606Z,101265.31
2023-02-27T17:26:29.414Z,101270.72
2023-02-27T17:28:56.369Z,101266.44
2023-02-27T17:31:24.019Z,101272.44
2023-02-27T17:33:51.174Z,101274.09
2023-02-27T17:36:18.155Z,101292.44
2023-02-27T17:38:44.950Z,101275.75
2023-02-27T17:41:13.096Z,101278.28
2023-02-27T17:43:41.548Z,101286.19
2023-02-27T17:46:09.277Z,101288.75
2023-02-27T17:48:37.606Z,101283.53
2023-02-27T17:51:10.290Z,101306.22
2023-02-27T17:53:37.263Z,101298.34
2023-02-27T17:56:04.673Z,101294.16
2023-02-27T17:58:31.749Z,101285.28
2023-02-27T18:01:16.970Z,101299.31
2023-02-27T18:03:45.974Z,101306.16
2023-02-27T18:06:13.154Z,101304.31
2023-02-27T18:08:39.545Z,101313.00
2023-02-27T18:11:11.249Z,101313.00
2023-02-27T18:13:40.120Z,101314.69
2023-02-27T18:16:07.097Z,101324.28
2023-02-27T18:18:38.454Z,101319.00
2023-02-27T18:21:08.027Z,101325.91
2023-02-27T18:23:36.284Z,101332.13
2023-02-27T18:26:03.142Z,101324.28
2023-02-27T18:28:29.714Z,101327.56
2023-02-27T18:30:56.645Z,101328.44
2023-02-27T18:33:23.732Z,101326.06
2023-02-27T18:35:51.019Z,101326.84
2023-02-27T18:38:17.884Z,101322.34
2023-02-27T18:40:44.424Z,101319.88
2023-02-27T18:43:11.713Z,101324.81
2023-02-27T18:45:38.528Z,101327.72
2023-02-27T18:48:05.352Z,101324.38
2023-02-27T18:50:31.837Z,101324.31
2023-02-27T18:53:00.201Z,101332.91
2023-02-27T18:55:26.869Z,101325.66
2023-02-27T18:57:53.419Z,101334.97
2023-02-27T19:00:21.598Z,101329.59
2023-02-27T19:02:48.144Z,101337.28
2023-02-27T19:05:14.743Z,101340.84
2023-02-27T19:07:42.307Z,101334.63
2023-02-27T19:10:09.730Z,101338.06
2023-02-27T19:12:36.264Z,101341.09
2023-02-27T19:15:02.807Z,101332.34
2023-02-27T19:17:29.310Z,101337.13
2023-02-27T19:19:59.574Z,101336.84
2023-02-27T19:22:30.326Z,101338.50
2023-02-27T19:24:57.667Z,101340.44
2023-02-27T19:27:24.710Z,101346.88
2023-02-27T19:29:51.709Z,101349.13
2023-02-27T19:32:18.331Z,101347.22
2023-02-27T19:34:44.794Z,101351.47
2023-02-27T19:37:11.349Z,101344.31
2023-02-27T19:39:37.913Z,101347.97
2023-02-27T19:42:04.375Z,101354.22
2023-02-27T19:44:30.711Z,101349.28
2023-02-27T19:46:57.169Z,101355.88
2023-02-27T19:49:23.538Z,101354.19
2023-02-27T19:51:50.000Z,101348.09
2023-02-27T19:54:16.613Z,101356.03
2023-02-27T19:56:43.429Z,101350.72
2023-02-27T19:59:11.905Z,101356.41
2023-02-27T20:01:42.966Z,101361.06
2023-02-27T20:04:11.034Z,101355.28
2023-02-27T20:06:42.077Z,101362.03
2023-02-27T20:09:13.103Z,101358.81
2023-02-27T20:11:40.290Z,101362.97
2023-02-27T20:14:07.377Z,101361.25
2023-02-27T20:16:36.146Z,101365.53
2023-02-27T20:19:06.994Z,101356.25
2023-02-27T20:21:34.181Z,101355.53
2023-02-27T20:24:01.371Z,101360.34
2023-02-27T20:26:34.438Z,101352.81
2023-02-27T20:29:05.033Z,101353.91
2023-02-27T20:31:33.799Z,101352.94
2023-02-27T20:34:01.161Z,101362.81
2023-02-27T20:36:28.101Z,101358.09
2023-02-27T20:38:54.576Z,101369.09
2023-02-27T20:41:22.526Z,101355.34
2023-02-27T20:43:49.463Z,101360.66
2023-02-27T20:46:21.701Z,101360.50
2023-02-27T20:48:48.430Z,101355.50
2023-02-27T20:51:20.381Z,101360.06
2023-02-27T20:53:49.959Z,101353.13
2023-02-27T20:56:20.599Z,101357.97
2023-02-27T20:58:47.206Z,101361.53
2023-02-27T21:01:15.256Z,101358.44
2023-02-27T21:03:43.388Z,101360.13
2023-02-27T21:06:11.996Z,101356.91
2023-02-27T21:08:40.920Z,101354.53
2023-02-27T21:11:11.753Z,101355.50
2023-02-27T21:13:38.363Z,101358.69
2023-02-27T21:16:07.345Z,101358.78
2023-02-27T21:18:34.104Z,101360.50
2023-02-27T21:21:23.489Z,101346.59
2023-02-27T21:23:50.815Z,101353.16
2023-02-27T21:26:20.798Z,101348.81
2023-02-27T21:28:56.323Z,101354.53
2023-02-27T21:31:25.638Z,101350.97
2023-02-27T21:33:54.328Z,101355.06
2023-02-27T21:36:25.799Z,101346.97
2023-02-27T21:38:59.058Z,101349.22
2023-02-27T21:41:25.947Z,101343.03
2023-02-27T21:43:52.457Z,101343.84
2023-02-27T21:46:20.670Z,101341.72
2023-02-27T21:48:47.104Z,101333.63
2023-02-27T21:51:13.538Z,101337.84
2023-02-27T21:53:39.934Z,101337.16
2023-02-27T21:56:09.131Z,101341.31
2023-02-27T21:58:36.196Z,101335.19
2023-02-27T22:01:03.236Z,101340.28
2023-02-27T22:03:34.231Z,101339.63
2023-02-27T22:06:02.041Z,101340.13
2023-02-27T22:08:28.745Z,101340.28
2023-02-27T22:10:57.173Z,101344.41
2023-02-27T22:13:23.900Z,101338.69
2023-02-27T22:15:50.867Z,101339.59
2023-02-27T22:18:17.363Z,101344.56
2023-02-27T22:20:43.858Z,101340.94
2023-02-27T22:23:10.374Z,101334.78
2023-02-27T22:25:37.092Z,101344.34
2023-02-27T22:28:04.151Z,101338.81
2023-02-27T22:30:30.780Z,101332.25
2023-02-27T22:32:57.274Z,101334.59
2023-02-27T22:35:24.004Z,101345.91
2023-02-27T22:37:50.640Z,101339.44
2023-02-27T22:40:17.894Z,101343.56
2023-02-27T22:42:44.952Z,101336.69
2023-02-27T22:45:11.660Z,101340.41
2023-02-27T22:47:38.102Z,101340.81
2023-02-27T22:50:04.815Z,101343.75
2023-02-27T22:52:31.214Z,101349.06
2023-02-27T22:54:57.624Z,101344.09
2023-02-27T22:57:23.971Z,101352.31
2023-02-27T22:59:50.333Z,101352.97
2023-02-27T23:02:17.287Z,101352.75
2023-02-27T23:04:43.790Z,101353.91
2023-02-27T23:07:10.213Z,101352.06
2023-02-27T23:09:36.594Z,101351.16
2023-02-27T23:12:04.297Z,101349.53
2023-02-27T23:14:30.719Z,101351.78
2023-02-27T23:16:57.188Z,101345.28
2023-02-27T23:19:23.548Z,101341.50
2023-02-27T23:21:50.081Z,101342.69
2023-02-27T23:24:18.254Z,101350.44
2023-02-27T23:26:47.987Z,101343.09
2023-02-27T23:29:14.876Z,101341.00
2023-02-27T23:31:42.355Z,101343.03
2023-02-27T23:34:09.590Z,101346.44
2023-02-27T23:36:37.158Z,101343.44
2023-02-27T23:39:04.923Z,101346.25
2023-02-27T23:41:32.155Z,101344.50
2023-02-27T23:43:58.665Z,101351.72
2023-02-27T23:46:30.565Z,101343.72
2023-02-27T23:49:01.277Z,101348.53
2023-02-27T23:51:30.584Z,101348.81
2023-02-27T23:53:57.650Z,101347.50
2023-02-27T23:56:27.628Z,101348.81
2023-02-27T23:58:56.818Z,101353.63
